createdAt,value
2018-10-02T00:00:11.339Z,999.90
2018-10-02T00:02:39.226Z,999.90
2018-10-02T00:05:07.351Z,999.90
2018-10-02T00:07:35.322Z,999.90
2018-10-02T00:10:03.442Z,999.90
2018-10-02T00:12:36.882Z,999.90
2018-10-02T00:15:05.475Z,999.90
2018-10-02T00:17:33.563Z,999.90
2018-10-02T00:20:01.919Z,999.90
2018-10-02T00:22:29.782Z,999.90
2018-10-02T00:24:57.670Z,999.90
2018-10-02T00:27:25.542Z,999.90
2018-10-02T00:29:53.616Z,999.90
2018-10-02T00:32:21.977Z,999.90
2018-10-02T00:34:49.896Z,999.90
2018-10-02T00:37:17.960Z,999.90
2018-10-02T00:39:46.025Z,999.90
2018-10-02T00:42:14.075Z,999.90
2018-10-02T00:44:42.135Z,999.90
2018-10-02T00:47:10.195Z,999.90
2018-10-02T00:49:38.262Z,999.90
2018-10-02T00:52:06.118Z,999.90
2018-10-02T00:54:33.994Z,999.90
2018-10-02T00:57:01.867Z,999.90
2018-10-02T00:59:29.939Z,999.90
2018-10-02T01:01:58.108Z,999.90
2018-10-02T01:04:26.147Z,999.90
2018-10-02T01:06:54.198Z,999.90
2018-10-02T01:09:22.250Z,999.90
2018-10-02T01:11:50.400Z,999.90
2018-10-02T01:14:18.444Z,999.90
2018-10-02T01:16:46.526Z,999.90
2018-10-02T01:19:14.668Z,999.90
2018-10-02T01:21:43.245Z,999.90
2018-10-02T01:24:11.167Z,999.90
2018-10-02T01:26:39.170Z,999.90
2018-10-02T01:29:07.250Z,999.90
2018-10-02T01:31:35.333Z,999.90
2018-10-02T01:34:03.413Z,999.90
2018-10-02T01:36:31.290Z,998.43
2018-10-02T01:38:59.147Z,999.90
2018-10-02T01:41:27.208Z,999.90
2018-10-02T01:43:55.251Z,999.90
2018-10-02T01:46:23.303Z,999.90
2018-10-02T01:48:51.163Z,990.37
2018-10-02T01:51:19.276Z,995.67
2018-10-02T01:53:47.327Z,982.50
2018-10-02T01:56:15.379Z,999.90
2018-10-02T01:58:43.427Z,999.90
2018-10-02T02:01:11.475Z,999.90
2018-10-02T02:03:39.528Z,997.77
2018-10-02T02:06:07.576Z,992.60
2018-10-02T02:08:35.606Z,996.20
2018-10-02T02:11:03.685Z,999.90
2018-10-02T02:13:31.850Z,999.90
2018-10-02T02:16:00.201Z,999.90
2018-10-02T02:18:28.304Z,999.90
2018-10-02T02:20:56.367Z,999.90
2018-10-02T02:23:24.406Z,999.90
2018-10-02T02:25:52.430Z,999.90
2018-10-02T02:28:20.306Z,999.90
2018-10-02T02:30:48.213Z,999.90
2018-10-02T02:33:16.091Z,948.43
2018-10-02T02:35:44.194Z,980.63
2018-10-02T02:38:12.253Z,983.10
2018-10-02T02:40:40.307Z,990.07
2018-10-02T02:43:08.383Z,965.37
2018-10-02T02:45:36.425Z,999.90
2018-10-02T02:48:09.934Z,994.63
2018-10-02T02:50:43.262Z,964.67
2018-10-02T02:53:13.958Z,946.57
2018-10-02T02:55:41.898Z,897.60
2018-10-02T02:58:09.777Z,933.93
2018-10-02T03:00:37.656Z,949.00
2018-10-02T03:03:05.549Z,938.53
2018-10-02T03:05:33.600Z,937.27
2018-10-02T03:08:01.666Z,989.93
2018-10-02T03:10:29.726Z,999.90
2018-10-02T03:12:57.838Z,999.90
2018-10-02T03:15:25.902Z,999.90
2018-10-02T03:17:54.160Z,999.90
2018-10-02T03:20:22.022Z,999.90
2018-10-02T03:22:49.902Z,983.20
2018-10-02T03:25:17.781Z,917.07
2018-10-02T03:27:45.851Z,992.37
2018-10-02T03:30:13.902Z,999.90
2018-10-02T03:32:41.992Z,999.90
2018-10-02T03:35:10.038Z,967.23
2018-10-02T03:37:38.144Z,999.90
2018-10-02T03:40:07.028Z,999.90
2018-10-02T03:42:34.898Z,926.43
2018-10-02T03:45:02.765Z,838.47
2018-10-02T03:47:30.625Z,740.87
2018-10-02T03:49:58.678Z,811.43
2018-10-02T03:52:26.745Z,729.30
2018-10-02T03:54:54.787Z,722.57
2018-10-02T03:57:22.886Z,741.27
2018-10-02T03:59:51.073Z,740.27
2018-10-02T04:02:18.952Z,740.70
2018-10-02T04:04:47.018Z,686.30
2018-10-02T04:07:14.880Z,741.57
2018-10-02T04:09:42.926Z,765.57
2018-10-02T04:12:10.977Z,715.07
2018-10-02T04:14:39.018Z,664.53
2018-10-02T04:17:07.090Z,761.87
2018-10-02T04:19:34.968Z,710.30
2018-10-02T04:22:02.842Z,709.77
2018-10-02T04:24:30.890Z,625.33
2018-10-02T04:26:59.186Z,621.27
2018-10-02T04:29:27.041Z,688.60
2018-10-02T04:31:54.902Z,998.80
2018-10-02T04:34:22.769Z,999.90
2018-10-02T04:36:50.621Z,713.10
2018-10-02T04:39:18.543Z,723.80
2018-10-02T04:41:46.362Z,644.93
2018-10-02T04:44:14.234Z,973.33
2018-10-02T04:46:42.101Z,987.23
2018-10-02T04:49:10.158Z,999.90
2018-10-02T04:51:38.020Z,973.17
2018-10-02T04:54:05.881Z,787.67
2018-10-02T04:56:33.733Z,786.50
2018-10-02T04:59:01.602Z,807.53
2018-10-02T05:01:29.457Z,794.07
2018-10-02T05:03:57.510Z,765.10
2018-10-02T05:06:25.553Z,804.63
2018-10-02T05:08:53.547Z,939.87
2018-10-02T05:11:22.174Z,956.17
2018-10-02T05:13:50.219Z,902.57
2018-10-02T05:16:18.252Z,863.23
2018-10-02T05:18:46.342Z,999.90
2018-10-02T05:21:14.439Z,994.20
2018-10-02T05:23:42.526Z,872.30
2018-10-02T05:26:10.574Z,999.90
2018-10-02T05:28:38.673Z,858.57
2018-10-02T05:31:06.719Z,940.40
2018-10-02T05:33:34.753Z,815.70
2018-10-02T05:36:02.599Z,938.77
2018-10-02T05:38:30.639Z,975.33
2018-10-02T05:40:58.490Z,971.83
2018-10-02T05:43:26.559Z,877.07
2018-10-02T05:45:54.422Z,957.67
2018-10-02T05:48:22.290Z,976.30
2018-10-02T05:50:50.166Z,712.37
2018-10-02T05:53:18.058Z,914.27
2018-10-02T05:55:45.907Z,951.13
2018-10-02T05:58:13.844Z,817.20
2018-10-02T06:00:41.904Z,975.43
2018-10-02T06:03:10.066Z,892.87
2018-10-02T06:05:38.107Z,999.90
2018-10-02T06:08:06.391Z,999.90
2018-10-02T06:10:34.255Z,999.90
2018-10-02T06:13:02.284Z,952.70
2018-10-02T06:15:30.158Z,893.53
2018-10-02T06:17:58.203Z,984.33
2018-10-02T06:20:26.230Z,999.90
2018-10-02T06:22:54.412Z,999.90
2018-10-02T06:25:22.314Z,999.90
2018-10-02T06:27:50.178Z,999.90
2018-10-02T06:30:18.124Z,999.90
2018-10-02T06:32:46.182Z,967.20
2018-10-02T06:35:14.195Z,999.90
2018-10-02T06:37:42.242Z,851.93
2018-10-02T06:40:10.304Z,767.37
2018-10-02T06:42:38.351Z,691.70
2018-10-02T06:45:06.859Z,521.13
2018-10-02T06:47:34.915Z,475.57
2018-10-02T06:50:02.975Z,770.27
2018-10-02T06:52:31.200Z,551.57
2018-10-02T06:54:59.091Z,930.43
2018-10-02T06:57:27.156Z,876.67
2018-10-02T06:59:55.214Z,659.07
2018-10-02T07:02:23.334Z,871.37
2018-10-02T07:04:51.350Z,979.87
2018-10-02T07:07:19.216Z,605.47
2018-10-02T07:09:47.274Z,571.53
2018-10-02T07:12:15.315Z,582.23
2018-10-02T07:14:43.254Z,554.47
2018-10-02T07:17:11.093Z,512.27
2018-10-02T07:19:39.006Z,999.90
2018-10-02T07:22:07.050Z,681.17
2018-10-02T07:24:35.110Z,553.37
2018-10-02T07:27:03.049Z,534.20
2018-10-02T07:29:31.042Z,609.47
2018-10-02T07:31:59.091Z,610.80
2018-10-02T07:34:27.248Z,660.20
2018-10-02T07:36:55.359Z,897.90
2018-10-02T07:39:23.174Z,996.87
2018-10-02T07:41:51.265Z,999.90
2018-10-02T07:44:19.291Z,904.23
2018-10-02T07:46:47.351Z,961.80
2018-10-02T07:49:15.408Z,427.27
2018-10-02T07:51:43.285Z,452.80
2018-10-02T07:54:11.170Z,642.37
2018-10-02T07:56:39.070Z,396.17
2018-10-02T07:59:06.890Z,379.23
2018-10-02T08:01:34.942Z,320.50
2018-10-02T08:04:02.807Z,422.67
2018-10-02T08:06:30.675Z,657.33
2018-10-02T08:08:58.573Z,253.50
2018-10-02T08:11:26.633Z,924.00
2018-10-02T08:13:54.659Z,681.03
2018-10-02T08:16:22.536Z,415.07
2018-10-02T08:18:50.395Z,405.47
2018-10-02T08:21:18.441Z,697.63
2018-10-02T08:23:46.500Z,848.20
2018-10-02T08:26:14.562Z,956.40
2018-10-02T08:28:42.622Z,360.17
2018-10-02T08:31:10.487Z,381.03
2018-10-02T08:33:38.359Z,434.80
2018-10-02T08:36:06.531Z,800.17
2018-10-02T08:38:34.626Z,581.10
2018-10-02T08:41:02.627Z,538.63
2018-10-02T08:43:30.732Z,698.93
2018-10-02T08:45:58.734Z,616.17
2018-10-02T08:48:26.779Z,798.80
2018-10-02T08:50:54.845Z,317.87
2018-10-02T08:53:22.944Z,819.90
2018-10-02T08:55:50.807Z,769.67
2018-10-02T08:58:18.662Z,539.27
2018-10-02T09:00:46.613Z,475.67
2018-10-02T09:03:14.505Z,537.87
2018-10-02T09:05:42.495Z,287.10
2018-10-02T09:08:10.567Z,789.30
2018-10-02T09:10:38.635Z,836.50
2018-10-02T09:13:06.702Z,939.10
2018-10-02T09:15:34.826Z,740.83
2018-10-02T09:18:02.830Z,636.23
2018-10-02T09:20:30.722Z,860.20
2018-10-02T09:22:58.591Z,288.27
2018-10-02T09:25:26.671Z,745.87
2018-10-02T09:27:54.790Z,813.93
2018-10-02T09:30:28.326Z,623.47
2018-10-02T09:33:01.670Z,323.53
2018-10-02T09:35:35.002Z,827.03
2018-10-02T09:38:08.492Z,380.53
2018-10-02T09:40:41.931Z,732.90
2018-10-02T09:43:15.385Z,691.57
2018-10-02T09:45:43.240Z,368.67
2018-10-02T09:48:13.179Z,583.20
2018-10-02T09:50:41.295Z,197.37
2018-10-02T09:53:09.254Z,240.60
2018-10-02T09:55:37.280Z,372.10
2018-10-02T09:58:05.327Z,539.17
2018-10-02T10:00:38.936Z,331.87
2018-10-02T10:03:07.006Z,336.43
2018-10-02T10:05:35.039Z,401.73
2018-10-02T10:08:02.905Z,213.93
2018-10-02T10:10:31.145Z,248.83
2018-10-02T10:12:59.282Z,565.73
2018-10-02T10:15:27.383Z,578.67
2018-10-02T10:17:55.277Z,559.40
2018-10-02T10:20:23.178Z,170.57
2018-10-02T10:22:51.236Z,124.60
2018-10-02T10:25:19.227Z,388.70
2018-10-02T10:27:47.256Z,148.37
2018-10-02T10:30:15.358Z,259.27
2018-10-02T10:32:43.446Z,382.33
2018-10-02T10:35:11.533Z,530.70
2018-10-02T10:37:39.478Z,433.23
2018-10-02T10:40:07.579Z,683.70
2018-10-02T10:42:35.644Z,808.80
2018-10-02T10:45:03.727Z,357.47
2018-10-02T10:47:31.865Z,488.47
2018-10-02T10:49:59.893Z,589.37
2018-10-02T10:52:28.011Z,564.60
2018-10-02T10:55:01.405Z,627.80
2018-10-02T10:57:29.342Z,498.53
2018-10-02T10:59:57.211Z,491.83
2018-10-02T11:02:25.266Z,970.90
2018-10-02T11:04:53.366Z,654.37
2018-10-02T11:07:21.243Z,821.93
2018-10-02T11:09:49.294Z,688.63
2018-10-02T11:12:17.378Z,555.10
2018-10-02T11:14:45.493Z,728.17
2018-10-02T11:17:14.094Z,284.23
2018-10-02T11:19:42.000Z,398.87
2018-10-02T11:22:09.955Z,323.60
2018-10-02T11:24:37.860Z,411.30
2018-10-02T11:27:05.971Z,492.27
2018-10-02T11:29:33.897Z,399.43
2018-10-02T11:32:01.886Z,619.27
2018-10-02T11:34:29.959Z,919.97
2018-10-02T11:36:58.032Z,999.90
2018-10-02T11:39:26.024Z,969.10
2018-10-02T11:41:54.104Z,807.60
2018-10-02T11:44:22.571Z,990.70
2018-10-02T11:46:50.407Z,885.90
2018-10-02T11:49:18.464Z,992.03
2018-10-02T11:51:46.341Z,999.90
2018-10-02T11:54:14.210Z,999.90
2018-10-02T11:56:42.098Z,911.43
2018-10-02T11:59:10.154Z,999.90
2018-10-02T12:01:38.028Z,999.90
2018-10-02T12:04:06.087Z,988.37
2018-10-02T12:06:34.153Z,854.30
2018-10-02T12:09:02.260Z,999.90
2018-10-02T12:11:30.305Z,830.50
2018-10-02T12:13:58.416Z,978.97
2018-10-02T12:16:26.395Z,900.23
2018-10-02T12:18:54.443Z,548.93
2018-10-02T12:21:22.506Z,379.37
2018-10-02T12:23:50.588Z,632.80
2018-10-02T12:26:18.506Z,560.00
2018-10-02T12:28:46.611Z,447.30
2018-10-02T12:31:14.494Z,411.67
2018-10-02T12:33:42.351Z,591.07
2018-10-02T12:36:10.427Z,438.80
2018-10-02T12:38:38.557Z,835.37
2018-10-02T12:41:06.567Z,823.83
2018-10-02T12:43:34.414Z,999.90
2018-10-02T12:46:02.472Z,857.77
2018-10-02T12:48:30.763Z,984.97
2018-10-02T12:50:58.830Z,918.07
2018-10-02T12:53:26.855Z,999.90
2018-10-02T12:55:54.883Z,999.90
2018-10-02T12:58:22.940Z,999.90
2018-10-02T13:00:51.022Z,866.30
2018-10-02T13:03:19.098Z,994.30
2018-10-02T13:05:46.963Z,999.90
2018-10-02T13:08:14.831Z,999.90
2018-10-02T13:10:42.687Z,999.90
2018-10-02T13:13:10.580Z,999.90
2018-10-02T13:15:38.604Z,999.90
2018-10-02T13:18:06.455Z,999.90
2018-10-02T13:20:34.486Z,971.73
2018-10-02T13:23:02.514Z,999.90
2018-10-02T13:25:30.552Z,999.90
2018-10-02T13:27:58.580Z,999.90
2018-10-02T13:30:26.639Z,999.90
2018-10-02T13:32:54.679Z,999.90
2018-10-02T13:35:22.717Z,999.90
2018-10-02T13:37:50.758Z,999.90
2018-10-02T13:40:18.785Z,999.90
2018-10-02T13:42:46.806Z,999.90
2018-10-02T13:45:14.854Z,999.90
2018-10-02T13:47:42.882Z,999.90
2018-10-02T13:50:10.763Z,999.90
2018-10-02T13:52:38.783Z,999.90
2018-10-02T13:55:06.804Z,999.90
2018-10-02T13:57:41.194Z,999.90
2018-10-02T14:00:09.227Z,999.90
2018-10-02T14:02:37.831Z,999.90
2018-10-02T14:05:05.754Z,999.90
2018-10-02T14:07:33.661Z,999.90
2018-10-02T14:10:01.720Z,999.90
2018-10-02T14:12:29.645Z,999.90
2018-10-02T14:14:57.608Z,999.90
2018-10-02T14:17:25.647Z,999.90
2018-10-02T14:19:53.684Z,999.90
2018-10-02T14:22:21.839Z,999.90
2018-10-02T14:24:49.815Z,999.90
2018-10-02T14:27:17.769Z,999.90
2018-10-02T14:29:45.909Z,999.90
2018-10-02T14:32:13.906Z,999.90
2018-10-02T14:34:41.805Z,999.90
2018-10-02T14:37:09.923Z,999.90
2018-10-02T14:39:37.987Z,999.90
2018-10-02T14:42:05.865Z,999.90
2018-10-02T14:44:33.924Z,995.10
2018-10-02T14:47:01.987Z,999.90
2018-10-02T14:49:29.961Z,999.90
2018-10-02T14:51:57.810Z,999.90
2018-10-02T14:54:25.698Z,999.90
2018-10-02T14:56:53.763Z,965.23
2018-10-02T14:59:22.183Z,999.90
2018-10-02T15:01:49.997Z,999.90
2018-10-02T15:04:17.877Z,999.90
2018-10-02T15:06:46.978Z,999.90
2018-10-02T15:09:15.035Z,999.90
2018-10-02T15:11:43.186Z,999.90
2018-10-02T15:14:11.242Z,999.90
2018-10-02T15:16:39.155Z,999.90
2018-10-02T15:19:08.905Z,999.90
2018-10-02T15:21:36.814Z,999.90
2018-10-02T15:24:05.104Z,999.90
2018-10-02T15:26:33.139Z,999.90
2018-10-02T15:29:01.223Z,999.90
2018-10-02T15:31:29.371Z,999.90
2018-10-02T15:33:57.219Z,999.90
2018-10-02T15:36:25.077Z,980.50
2018-10-02T15:38:52.973Z,999.90
2018-10-02T15:41:20.849Z,999.90
2018-10-02T15:43:48.728Z,999.90
2018-10-02T15:46:16.702Z,999.90
2018-10-02T15:48:44.764Z,999.90
2018-10-02T15:51:12.739Z,999.90
2018-10-02T15:53:40.611Z,999.90
2018-10-02T15:56:08.519Z,986.63
2018-10-02T15:58:36.464Z,999.90
2018-10-02T16:01:04.318Z,999.90
2018-10-02T16:03:32.232Z,999.90
2018-10-02T16:06:00.050Z,999.90
2018-10-02T16:08:27.934Z,999.90
2018-10-02T16:10:55.782Z,999.90
2018-10-02T16:13:23.654Z,999.90
2018-10-02T16:15:52.574Z,999.90
2018-10-02T16:18:20.510Z,999.90
2018-10-02T16:20:48.319Z,999.90
2018-10-02T16:23:16.274Z,987.60
2018-10-02T16:25:44.174Z,977.27
2018-10-02T16:28:12.079Z,999.90
2018-10-02T16:30:39.935Z,961.97
2018-10-02T16:33:08.935Z,997.63
2018-10-02T16:35:36.790Z,966.17
2018-10-02T16:38:04.676Z,999.90
2018-10-02T16:40:32.543Z,999.90
2018-10-02T16:43:00.409Z,999.90
2018-10-02T16:45:28.329Z,999.90
2018-10-02T16:47:56.326Z,999.90
2018-10-02T16:50:24.435Z,997.73
2018-10-02T16:52:52.300Z,999.90
2018-10-02T16:55:20.173Z,999.90
2018-10-02T16:57:48.914Z,999.90
2018-10-02T17:00:16.790Z,999.90
2018-10-02T17:02:44.684Z,979.77
2018-10-02T17:05:12.568Z,999.90
2018-10-02T17:07:40.487Z,999.90
2018-10-02T17:10:08.417Z,999.90
2018-10-02T17:12:36.314Z,999.90
2018-10-02T17:15:04.429Z,947.03
2018-10-02T17:17:32.298Z,999.90
2018-10-02T17:20:00.217Z,999.90
2018-10-02T17:22:28.177Z,975.50
2018-10-02T17:24:56.058Z,999.90
2018-10-02T17:27:23.913Z,968.70
2018-10-02T17:29:51.826Z,999.90
2018-10-02T17:32:20.006Z,999.90
2018-10-02T17:34:47.903Z,999.90
2018-10-02T17:37:15.790Z,999.90
2018-10-02T17:39:43.674Z,999.90
2018-10-02T17:42:11.587Z,999.90
2018-10-02T17:44:39.521Z,999.90
2018-10-02T17:47:07.396Z,999.90
2018-10-02T17:49:35.271Z,999.90
2018-10-02T17:52:03.129Z,999.90
2018-10-02T17:54:31.031Z,990.67
2018-10-02T17:56:58.915Z,999.90
2018-10-02T17:59:26.834Z,999.90
2018-10-02T18:01:54.734Z,999.90
2018-10-02T18:04:22.626Z,999.90
2018-10-02T18:06:50.498Z,999.90
2018-10-02T18:09:18.357Z,999.90
2018-10-02T18:11:46.222Z,999.90
2018-10-02T18:14:14.096Z,996.70
2018-10-02T18:16:41.975Z,999.90
2018-10-02T18:19:09.930Z,999.90
2018-10-02T18:21:37.816Z,999.90
2018-10-02T18:24:05.681Z,999.90
2018-10-02T18:26:33.558Z,999.90
2018-10-02T18:29:01.431Z,999.90
2018-10-02T18:31:29.277Z,999.90
2018-10-02T18:33:57.145Z,999.90
2018-10-02T18:36:25.013Z,999.90
2018-10-02T18:38:52.926Z,999.90
2018-10-02T18:41:20.752Z,999.90
2018-10-02T18:43:48.634Z,999.90
2018-10-02T18:46:16.497Z,999.90
2018-10-02T18:48:44.418Z,999.90
2018-10-02T18:51:12.286Z,999.90
2018-10-02T18:53:40.152Z,999.90
2018-10-02T18:56:08.106Z,999.90
2018-10-02T18:58:35.893Z,999.90
2018-10-02T19:01:03.759Z,999.90
2018-10-02T19:03:31.630Z,999.90
2018-10-02T19:05:59.564Z,999.90
2018-10-02T19:08:33.080Z,999.90
2018-10-02T19:11:05.298Z,999.90
2018-10-02T19:13:33.162Z,999.23
2018-10-02T19:16:06.663Z,999.90
2018-10-02T19:18:34.527Z,999.90
2018-10-02T19:21:02.464Z,999.90
2018-10-02T19:23:30.418Z,999.90
2018-10-02T19:26:03.731Z,999.90
2018-10-02T19:28:31.599Z,999.90
2018-10-02T19:31:04.993Z,999.90
2018-10-02T19:33:32.874Z,999.90
2018-10-02T19:36:00.776Z,999.90
2018-10-02T19:38:34.083Z,999.90
2018-10-02T19:41:01.969Z,999.90
2018-10-02T19:43:29.842Z,999.90
2018-10-02T19:46:03.243Z,999.90
2018-10-02T19:48:31.101Z,999.90
2018-10-02T19:51:04.421Z,999.90
2018-10-02T19:53:32.508Z,999.90
2018-10-02T19:56:00.406Z,999.90
2018-10-02T19:58:28.294Z,999.90
2018-10-02T20:00:56.224Z,999.90
2018-10-02T20:03:27.337Z,999.90
2018-10-02T20:05:55.206Z,999.90
2018-10-02T20:08:23.091Z,999.90
2018-10-02T20:10:52.071Z,999.90
2018-10-02T20:13:20.046Z,999.90
2018-10-02T20:15:47.917Z,999.90
2018-10-02T20:18:15.833Z,999.90
2018-10-02T20:20:43.951Z,999.90
2018-10-02T20:23:15.079Z,999.90
2018-10-02T20:25:42.981Z,999.90
2018-10-02T20:28:10.910Z,999.90
2018-10-02T20:30:38.827Z,999.90
2018-10-02T20:33:06.904Z,999.90
2018-10-02T20:35:34.950Z,999.90
2018-10-02T20:38:02.817Z,999.90
2018-10-02T20:40:30.701Z,999.90
2018-10-02T20:42:58.558Z,999.90
2018-10-02T20:45:26.427Z,999.90
2018-10-02T20:47:54.498Z,999.90
2018-10-02T20:50:22.391Z,999.90
2018-10-02T20:52:50.274Z,999.90
2018-10-02T20:55:18.158Z,999.90
2018-10-02T20:57:46.049Z,999.90
2018-10-02T21:00:13.984Z,999.90
2018-10-02T21:02:42.152Z,999.90
2018-10-02T21:05:10.010Z,999.90
2018-10-02T21:07:37.890Z,999.90
2018-10-02T21:10:05.768Z,999.90
2018-10-02T21:12:33.656Z,999.90
2018-10-02T21:15:01.511Z,999.90
2018-10-02T21:17:29.406Z,999.90
2018-10-02T21:19:57.302Z,999.90
2018-10-02T21:22:25.157Z,999.90
2018-10-02T21:24:53.031Z,999.90
2018-10-02T21:27:20.919Z,999.90
2018-10-02T21:29:48.786Z,999.90
2018-10-02T21:32:16.655Z,999.90
2018-10-02T21:34:44.641Z,999.90
2018-10-02T21:37:12.427Z,999.90
2018-10-02T21:39:40.285Z,999.90
2018-10-02T21:42:08.150Z,999.90
2018-10-02T21:44:36.004Z,999.90
2018-10-02T21:47:03.871Z,999.90
2018-10-02T21:49:31.719Z,999.90
2018-10-02T21:51:59.688Z,999.90
2018-10-02T21:54:27.538Z,999.90
2018-10-02T21:56:55.419Z,999.90
2018-10-02T21:59:23.267Z,999.90
2018-10-02T22:01:51.134Z,999.90
2018-10-02T22:04:18.985Z,999.90
2018-10-02T22:06:46.867Z,999.90
2018-10-02T22:09:14.718Z,999.90
2018-10-02T22:11:42.585Z,999.90
2018-10-02T22:14:10.426Z,999.90
2018-10-02T22:16:38.284Z,999.90
2018-10-02T22:19:06.159Z,999.90
2018-10-02T22:21:34.038Z,999.90
2018-10-02T22:24:01.972Z,999.90
2018-10-02T22:26:29.778Z,999.90
2018-10-02T22:28:57.671Z,999.90
2018-10-02T22:31:25.527Z,999.90
2018-10-02T22:33:53.463Z,999.90
2018-10-02T22:36:21.384Z,999.90
2018-10-02T22:38:49.295Z,999.90
2018-10-02T22:41:17.218Z,999.90
2018-10-02T22:43:45.159Z,999.90
2018-10-02T22:46:13.040Z,999.90
2018-10-02T22:48:40.914Z,999.90
2018-10-02T22:51:08.781Z,999.90
2018-10-02T22:53:36.672Z,999.90
2018-10-02T22:56:04.545Z,999.90
2018-10-02T22:58:32.435Z,999.90
2018-10-02T23:01:00.305Z,999.90
2018-10-02T23:03:28.170Z,999.90
2018-10-02T23:05:56.363Z,999.90
2018-10-02T23:08:24.341Z,999.90
2018-10-02T23:10:52.202Z,999.90
2018-10-02T23:13:20.072Z,999.90
2018-10-02T23:15:47.925Z,999.90
2018-10-02T23:18:15.794Z,999.90
2018-10-02T23:20:43.654Z,999.90
2018-10-02T23:23:11.541Z,999.90
2018-10-02T23:25:39.390Z,999.90
2018-10-02T23:28:07.255Z,999.90
2018-10-02T23:30:35.163Z,999.90
2018-10-02T23:33:03.026Z,999.90
2018-10-02T23:35:30.894Z,999.90
2018-10-02T23:37:58.877Z,999.90
2018-10-02T23:40:26.999Z,999.90
2018-10-02T23:42:54.882Z,999.90
2018-10-02T23:45:22.746Z,999.90
2018-10-02T23:47:50.650Z,999.90
2018-10-02T23:50:18.525Z,999.90
2018-10-02T23:52:46.383Z,999.90
2018-10-02T23:55:14.265Z,999.90
2018-10-02T23:57:42.126Z,999.90
